Warning: Javascript must be enabled to use all the features on this page!


Page Loading - Please Wait...

* We've detected you're using a mobile device. Find our Next Generation Station Page here.
Click to hideNews Bulletins
  • Have your voice heard. Have a few minutes? We're surveying users about their experience with Water Data for the Nation (WDFN). Please take a few minutes to complete our online survey.
  • See the Water Data for the Nation Blog for the latest news and updates.

Peak Streamflow for the Nation

USGS 09397000 LITTLE COLORADO RIVER AT HOLBROOK, AZ

Navajo County, Arizona
Hydrologic Unit Code 15020008
Latitude  34°53'52", Longitude 110°09'45" NAD27
Drainage area 11,462  square miles
Contributing drainage area 11,115  square miles
Gage datum 5,062.87 feet above NGVD29
Output formats
Table
Graph
Tab-separated file
peakfq (watstore) format
Reselect output format
Water
Year
Date Gage
Height
(feet)
Stream-
flow
(cfs)
1906 1905-11-27   20,2001,7
1923 1923-09-19   60,0002,7
1950 1950-07-19 7.68 2,960
1951 1951-08-28 8.80 8,700
1952 1952-01-19 8.70 8,400
1953 1953-07-29 7.53 6,030
1954 1954-07-22 8.60 10,800
1955 1955-08-17 8.50 10,500
1956 1956-06-30 7.30 4,210
1957 1957-08-05 10.96 21,800
1958 1958-09-14 8.85 7,000
1959 1959-08-06 8.95 6,300
1960 1959-10-29 9.50 11,400
1961 1961-08-16 8.12 4,160
1962 1961-10-31 8.27 4,010
1963 1963-08-31 9.72 9,370
1964 1964-09-09 10.752 15,100
1965 1965-07-25 10.70 14,800
1966 1966-08-13 10.73 10,400
1967 1967-08-12 11.83 14,100
1968 1968-08-12 12.10 21,000
1969 1968-10-04 12.55 24,200
1970 1970-09-06 13.92 19,700
1971 1971-08-21 13.40 13,200
1972 1971-10-01 14.35 20,300
1973 1972-10-20 15.20 15,000
1974 1974-07-22 10.60  
1976 1976-07-19 10.50  
1977 1977-08-12 12.78  
1978 1978-01-31 10.43  
1979 1978-12-19 13.48  
1980 1980-02-20 10.90  
2004 2004-09-29 9.632,3 3,690
2005 2005-08-12 9.893 3,560
2006 2006-07-31 14.463 9,440
2007 2007-07-29 12.103 6,510
2008 2008-01-29 12.463 6,920
2009 2009-09-07 8.913 1,710
2010 2010-07-31 15.363 9,590
2011 2011-07-26 9.503 4,470
2012 2012-08-22 12.513 7,890
2013 2013-07-17 10.903 5,970
2014 2014-09-28 11.693 6,910
2015 2014-10-09 10.113 4,930
2016 2015-10-22 8.602 1,900
2017 2017-07-25 12.50 2,310
2018 2018-07-14 13.40 2,830
2019 2018-10-08 14.16 3,340
?
  Peak Gage-Height Qualification Codes.
?
  Peak Streamflow Qualification Codes.